Die Wetterstation in Yach-Sommerrain 515m NN
Wetterdaten: aktuell Montag, 20.05.2024 20:05
Datum Zeit Temp. A. Feuchte A. Luftdruck Regen Wind Richtung Richtung Solar Taupunkt Windchill Windben Empfang
20.05.2024 20:05 16,6 C 80 % 1010,6 hPa 0,0 l/m 3,9 km/h (1 Bft) N-NO 29 40 W/m 13,1 C 16,6 C 6,4 km/h (2 Bft) 100 %
20.05.2024 20:00 16,8 C 82 % 1010,6 hPa 0,0 l/m 4,3 km/h (1 Bft) NO 34 42 W/m 13,7 C 16,8 C 8,0 km/h (2 Bft) 100 %
20.05.2024 19:55 16,7 C 81 % 1010,6 hPa 0,0 l/m 3,9 km/h (1 Bft) W 261 47 W/m 13,4 C 16,7 C 11,3 km/h (2 Bft) 100 %
20.05.2024 19:50 16,5 C 85 % 1010,7 hPa 0,0 l/m 3,9 km/h (1 Bft) N-NO 20 46 W/m 14,0 C 16,5 C 6,4 km/h (2 Bft) 100 %
20.05.2024 19:45 16,6 C 85 % 1010,6 hPa 0,0 l/m 3,7 km/h (1 Bft) N-NO 16 47 W/m 14,1 C 16,6 C 6,4 km/h (2 Bft) 100 %
20.05.2024 19:40 16,6 C 87 % 1010,6 hPa 0,0 l/m 4,4 km/h (1 Bft) N-NO 32 56 W/m 14,4 C 16,6 C 6,4 km/h (2 Bft) 100 %
20.05.2024 19:35 16,7 C 88 % 1010,6 hPa 0,0 l/m 3,5 km/h (1 Bft) NO 34 67 W/m 14,7 C 16,7 C 6,4 km/h (2 Bft) 100 %
20.05.2024 19:30 17,1 C 90 % 1010,6 hPa 0,0 l/m 3,8 km/h (1 Bft) NO 34 77 W/m 15,4 C 17,1 C 4,8 km/h (1 Bft) 100 %
20.05.2024 19:25 17,3 C 90 % 1010,6 hPa 0,0 l/m 3,7 km/h (1 Bft) NO 34 83 W/m 15,6 C 17,3 C 4,8 km/h (1 Bft) 100 %
20.05.2024 19:20 17,7 C 90 % 1010,7 hPa 0,0 l/m 2,6 km/h (1 Bft) NO 34 86 W/m 16,0 C 17,7 C 4,8 km/h (1 Bft) 100 %
20.05.2024 19:15 18,0 C 90 % 1010,6 hPa 0,0 l/m 0,4 km/h (0 Bft) NO 34 91 W/m 16,3 C 18,0 C 3,2 km/h (1 Bft) 100 %
20.05.2024 19:10 18,2 C 91 % 1010,6 hPa 0,0 l/m 0,0 km/h (0 Bft) NO 34 96 W/m 16,7 C 18,2 C 1,6 km/h (1 Bft) 100 %
20.05.2024 19:05 18,2 C 91 % 1010,5 hPa 0,0 l/m 1,1 km/h (1 Bft) NO 34 101 W/m 16,7 C 18,2 C 3,2 km/h (1 Bft) 100 %
20.05.2024 19:00 18,3 C 91 % 1010,6 hPa 0,0 l/m 0,6 km/h (0 Bft) NO 34 105 W/m 16,8 C 18,3 C 3,2 km/h (1 Bft) 100 %
20.05.2024 18:55 18,3 C 90 % 1010,7 hPa 0,0 l/m 1,2 km/h (1 Bft) NO 34 102 W/m 16,6 C 18,3 C 3,2 km/h (1 Bft) 100 %
20.05.2024 18:50 18,3 C 89 % 1010,6 hPa 0,0 l/m 2,8 km/h (1 Bft) NO 34 102 W/m 16,5 C 18,3 C 4,8 km/h (1 Bft) 100 %
20.05.2024 18:45 18,6 C 87 % 1010,6 hPa 0,0 l/m 2,3 km/h (1 Bft) O-NO 62 113 W/m 16,4 C 18,6 C 4,8 km/h (1 Bft) 100 %
20.05.2024 18:40 18,9 C 87 % 1010,6 hPa 0,0 l/m 1,8 km/h (1 Bft) N-NO 16 129 W/m 16,7 C 18,9 C 3,2 km/h (1 Bft) 100 %
20.05.2024 18:35 19,2 C 87 % 1010,6 hPa 0,0 l/m 2,4 km/h (1 Bft) N-NO 17 138 W/m 17,0 C 19,2 C 3,2 km/h (1 Bft) 100 %
20.05.2024 18:30 19,6 C 86 % 1010,6 hPa 0,0 l/m 0,8 km/h (0 Bft) S 179 154 W/m 17,2 C 19,6 C 3,2 km/h (1 Bft) 100 %
20.05.2024 18:25 19,7 C 86 % 1010,5 hPa 0,0 l/m 0,0 km/h (0 Bft) S 179 258 W/m 17,3 C 19,7 C 0,0 km/h (0 Bft) 100 %
20.05.2024 18:20 19,7 C 83 % 1010,6 hPa 0,0 l/m 0,8 km/h (0 Bft) S 179 301 W/m 16,7 C 19,7 C 3,2 km/h (1 Bft) 100 %
20.05.2024 18:15 19,8 C 87 % 1010,6 hPa 0,0 l/m 1,0 km/h (0 Bft) S 179 288 W/m 17,6 C 19,8 C 3,2 km/h (1 Bft) 100 %
20.05.2024 18:10 19,8 C 87 % 1010,6 hPa 0,0 l/m 0,4 km/h (0 Bft) S 179 311 W/m 17,6 C 19,8 C 3,2 km/h (1 Bft) 100 %
20.05.2024 18:05 19,7 C 86 % 1010,7 hPa 0,2 l/m 0,1 km/h (0 Bft) S 180 331 W/m 17,3 C 19,7 C 1,6 km/h (1 Bft) 100 %
20.05.2024 18:00 19,6 C 85 % 1010,7 hPa 0,0 l/m 0,4 km/h (0 Bft) S 179 324 W/m 17,0 C 19,6 C 3,2 km/h (1 Bft) 100 %
20.05.2024 17:55 19,5 C 86 % 1010,8 hPa 0,0 l/m 0,4 km/h (0 Bft) S 180 293 W/m 17,1 C 19,5 C 3,2 km/h (1 Bft) 100 %
20.05.2024 17:50 19,4 C 85 % 1010,9 hPa 0,0 l/m 1,1 km/h (1 Bft) S 179 298 W/m 16,8 C 19,4 C 3,2 km/h (1 Bft) 100 %
20.05.2024 17:45 19,5 C 85 % 1011,0 hPa 0,0 l/m 0,6 km/h (0 Bft) S 180 313 W/m 16,9 C 19,5 C 3,2 km/h (1 Bft) 100 %
20.05.2024 17:40 19,4 C 86 % 1011,0 hPa 0,0 l/m 0,9 km/h (0 Bft) S 180 338 W/m 17,0 C 19,4 C 3,2 km/h (1 Bft) 100 %
20.05.2024 17:35 19,4 C 85 % 1011,0 hPa 0,0 l/m 1,2 km/h (1 Bft) S 180 379 W/m 16,8 C 19,4 C 3,2 km/h (1 Bft) 100 %
20.05.2024 17:30 19,3 C 86 % 1011,1 hPa 0,0 l/m 0,8 km/h (0 Bft) S 180 417 W/m 16,9 C 19,3 C 3,2 km/h (1 Bft) 100 %
20.05.2024 17:25 19,1 C 87 % 1011,2 hPa 0,0 l/m 0,1 km/h (0 Bft) S 172 413 W/m 16,9 C 19,1 C 1,6 km/h (1 Bft) 100 %
20.05.2024 17:20 18,8 C 89 % 1011,3 hPa 0,0 l/m 0,9 km/h (0 Bft) S 172 446 W/m 16,9 C 18,8 C 3,2 km/h (1 Bft) 100 %
20.05.2024 17:15 18,5 C 90 % 1011,3 hPa 0,2 l/m 1,4 km/h (1 Bft) S 172 425 W/m 16,8 C 18,5 C 4,8 km/h (1 Bft) 100 %
20.05.2024 17:10 18,1 C 89 % 1011,3 hPa 0,0 l/m 0,9 km/h (0 Bft) SW 218 471 W/m 16,3 C 18,1 C 3,2 km/h (1 Bft) 100 %
20.05.2024 17:05 17,9 C 90 % 1011,4 hPa 0,0 l/m 0,9 km/h (0 Bft) S-SW 206 412 W/m 16,2 C 17,9 C 4,8 km/h (1 Bft) 100 %
20.05.2024 17:00 17,8 C 91 % 1011,6 hPa 0,2 l/m 0,6 km/h (0 Bft) W 262 202 W/m 16,3 C 17,8 C 3,2 km/h (1 Bft) 100 %
20.05.2024 16:55 17,7 C 91 % 1011,5 hPa 0,0 l/m 0,5 km/h (0 Bft) W 262 230 W/m 16,2 C 17,7 C 3,2 km/h (1 Bft) 100 %
20.05.2024 16:50 17,6 C 92 % 1011,5 hPa 0,0 l/m 1,0 km/h (0 Bft) W 262 344 W/m 16,3 C 17,6 C 3,2 km/h (1 Bft) 100 %
20.05.2024 16:45 17,4 C 92 % 1011,7 hPa 0,0 l/m 0,8 km/h (0 Bft) W 262 259 W/m 16,1 C 17,4 C 3,2 km/h (1 Bft) 100 %
20.05.2024 16:40 17,3 C 93 % 1011,6 hPa 0,0 l/m 0,5 km/h (0 Bft) W 264 322 W/m 16,2 C 17,3 C 3,2 km/h (1 Bft) 100 %
20.05.2024 16:35 17,1 C 93 % 1011,7 hPa 0,0 l/m 0,1 km/h (0 Bft) W 264 264 W/m 16,0 C 17,1 C 1,6 km/h (1 Bft) 100 %
20.05.2024 16:30 16,9 C 93 % 1011,8 hPa 0,2 l/m 0,0 km/h (0 Bft) SO 135 212 W/m 15,8 C 16,9 C 0,0 km/h (0 Bft) 100 %
20.05.2024 16:25 16,8 C 93 % 1011,9 hPa 0,0 l/m 0,0 km/h (0 Bft) SO 135 177 W/m 15,7 C 16,8 C 0,0 km/h (0 Bft) 100 %
20.05.2024 16:20 16,7 C 92 % 1011,9 hPa 0,2 l/m 0,9 km/h (0 Bft) SO 135 145 W/m 15,4 C 16,7 C 3,2 km/h (1 Bft) 100 %
20.05.2024 16:15 16,6 C 92 % 1011,9 hPa 0,0 l/m 1,2 km/h (1 Bft) SO 135 112 W/m 15,3 C 16,6 C 3,2 km/h (1 Bft) 100 %
20.05.2024 16:10 16,6 C 92 % 1012,0 hPa 0,0 l/m 0,5 km/h (0 Bft) SO 134 106 W/m 15,3 C 16,6 C 1,6 km/h (1 Bft) 100 %
20.05.2024 16:05 16,7 C 91 % 1012,0 hPa 0,2 l/m 1,9 km/h (1 Bft) S 171 146 W/m 15,2 C 16,7 C 3,2 km/h (1 Bft) 100 %
20.05.2024 16:00 16,9 C 92 % 1012,0 hPa 0,0 l/m 1,3 km/h (1 Bft) S-SW 201 197 W/m 15,6 C 16,9 C 6,4 km/h (2 Bft) 100 %
20.05.2024 15:55 16,8 C 92 % 1012,0 hPa 0,0 l/m 0,1 km/h (0 Bft) O-SO 107 227 W/m 15,5 C 16,8 C 1,6 km/h (1 Bft) 100 %
20.05.2024 15:50 16,6 C 92 % 1011,9 hPa 0,2 l/m 1,4 km/h (1 Bft) O-SO 107 247 W/m 15,3 C 16,6 C 3,2 km/h (1 Bft) 100 %
20.05.2024 15:45 16,7 C 92 % 1011,9 hPa 0,0 l/m 0,5 km/h (0 Bft) SW 219 222 W/m 15,4 C 16,7 C 1,6 km/h (1 Bft) 100 %
20.05.2024 15:40 16,5 C 92 % 1012,0 hPa 0,0 l/m 0,0 km/h (0 Bft) SW 217 169 W/m 15,2 C 16,5 C 0,0 km/h (0 Bft) 100 %
20.05.2024 15:35 16,4 C 91 % 1012,1 hPa 0,2 l/m 1,1 km/h (1 Bft) SW 217 173 W/m 14,9 C 16,4 C 6,4 km/h (2 Bft) 100 %
20.05.2024 15:30 16,4 C 92 % 1012,2 hPa 0,0 l/m 0,0 km/h (0 Bft) O-NO 69 171 W/m 15,1 C 16,4 C 0,0 km/h (0 Bft) 100 %
20.05.2024 15:25 16,3 C 91 % 1012,3 hPa 0,2 l/m 0,0 km/h (0 Bft) O-NO 69 174 W/m 14,8 C 16,3 C 0,0 km/h (0 Bft) 100 %
20.05.2024 15:20 16,3 C 90 % 1012,4 hPa 0,2 l/m 0,0 km/h (0 Bft) O-NO 69 137 W/m 14,7 C 16,3 C 0,0 km/h (0 Bft) 100 %
20.05.2024 15:15 16,7 C 89 % 1012,5 hPa 0,2 l/m 0,9 km/h (0 Bft) O-NO 69 81 W/m 14,9 C 16,7 C 3,2 km/h (1 Bft) 100 %
20.05.2024 15:10 17,0 C 88 % 1012,6 hPa 0,2 l/m 1,8 km/h (1 Bft) O-NO 69 60 W/m 15,0 C 17,0 C 4,8 km/h (1 Bft) 100 %
20.05.2024 15:05 17,4 C 87 % 1012,6 hPa 0,2 l/m 3,3 km/h (1 Bft) O-NO 70 44 W/m 15,2 C 17,4 C 4,8 km/h (1 Bft) 100 %
20.05.2024 15:00 17,6 C 86 % 1012,3 hPa 0,2 l/m 2,9 km/h (1 Bft) O-NO 70 44 W/m 15,2 C 17,6 C 4,8 km/h (1 Bft) 100 %
20.05.2024 14:55 17,8 C 86 % 1012,2 hPa 0,0 l/m 3,0 km/h (1 Bft) O-NO 70 54 W/m 15,4 C 17,8 C 3,2 km/h (1 Bft) 100 %
20.05.2024 14:50 18,1 C 84 % 1012,1 hPa 0,0 l/m 3,2 km/h (1 Bft) O-NO 70 74 W/m 15,4 C 18,1 C 4,8 km/h (1 Bft) 100 %
20.05.2024 14:45 18,4 C 83 % 1012,1 hPa 0,0 l/m 2,5 km/h (1 Bft) O 82 101 W/m 15,5 C 18,4 C 3,2 km/h (1 Bft) 100 %
20.05.2024 14:40 18,6 C 83 % 1012,2 hPa 0,0 l/m 1,1 km/h (1 Bft) O 82 121 W/m 15,7 C 18,6 C 3,2 km/h (1 Bft) 100 %
20.05.2024 14:35 18,8 C 84 % 1012,2 hPa 0,0 l/m 0,1 km/h (0 Bft) O 82 196 W/m 16,0 C 18,8 C 1,6 km/h (1 Bft) 100 %
20.05.2024 14:30 18,8 C 82 % 1012,2 hPa 0,0 l/m 2,4 km/h (1 Bft) O 82 209 W/m 15,7 C 18,8 C 3,2 km/h (1 Bft) 100 %
20.05.2024 14:25 19,1 C 78 % 1012,3 hPa 0,0 l/m 2,0 km/h (1 Bft) O 82 207 W/m 15,2 C 19,1 C 3,2 km/h (1 Bft) 100 %
20.05.2024 14:20 19,5 C 79 % 1012,3 hPa 0,0 l/m 0,8 km/h (0 Bft) O 82 188 W/m 15,8 C 19,5 C 3,2 km/h (1 Bft) 100 %
20.05.2024 14:15 19,4 C 80 % 1012,4 hPa 0,0 l/m 1,0 km/h (0 Bft) O 82 246 W/m 15,9 C 19,4 C 4,8 km/h (1 Bft) 100 %
20.05.2024 14:10 19,4 C 75 % 1012,5 hPa 0,0 l/m 1,9 km/h (1 Bft) O 82 167 W/m 14,8 C 19,4 C 4,8 km/h (1 Bft) 100 %
20.05.2024 14:05 19,6 C 69 % 1012,6 hPa 0,0 l/m 2,9 km/h (1 Bft) O 82 119 W/m 13,8 C 19,6 C 4,8 km/h (1 Bft) 100 %
20.05.2024 14:00 19,8 C 70 % 1012,5 hPa 0,0 l/m 2,1 km/h (1 Bft) O 84 144 W/m 14,2 C 19,8 C 4,8 km/h (1 Bft) 100 %
20.05.2024 13:55 20,1 C 70 % 1012,4 hPa 0,0 l/m 2,3 km/h (1 Bft) N 4 179 W/m 14,5 C 20,1 C 6,4 km/h (2 Bft) 100 %
20.05.2024 13:50 20,2 C 69 % 1012,6 hPa 0,0 l/m 3,6 km/h (1 Bft) O-SO 121 190 W/m 14,3 C 20,2 C 6,4 km/h (2 Bft) 100 %
20.05.2024 13:45 20,4 C 67 % 1012,8 hPa 0,0 l/m 5,0 km/h (1 Bft) SO 129 199 W/m 14,1 C 20,4 C 8,0 km/h (2 Bft) 100 %
20.05.2024 13:40 20,8 C 68 % 1012,7 hPa 0,0 l/m 9,1 km/h (2 Bft) SO 145 623 W/m 14,7 C 19,8 C 19,3 km/h (3 Bft) 100 %
20.05.2024 13:35 21,0 C 65 % 1012,7 hPa 0,0 l/m 8,4 km/h (2 Bft) O-SO 117 1045 W/m 14,2 C 20,3 C 16,1 km/h (3 Bft) 100 %
20.05.2024 13:30 21,2 C 64 % 1012,6 hPa 0,0 l/m 9,0 km/h (2 Bft) SO 141 1035 W/m 14,1 C 20,3 C 16,1 km/h (3 Bft) 100 %
20.05.2024 13:25 21,3 C 63 % 1012,7 hPa 0,0 l/m 7,5 km/h (2 Bft) SO 139 882 W/m 14,0 C 20,9 C 14,5 km/h (3 Bft) 100 %
20.05.2024 13:20 20,8 C 63 % 1012,7 hPa 0,0 l/m 3,8 km/h (1 Bft) S-SO 160 516 W/m 13,5 C 20,8 C 8,0 km/h (2 Bft) 100 %
20.05.2024 13:15 20,1 C 67 % 1012,8 hPa 0,0 l/m 3,3 km/h (1 Bft) S-SO 163 170 W/m 13,8 C 20,1 C 11,3 km/h (2 Bft) 100 %
20.05.2024 13:10 20,6 C 62 % 1013,0 hPa 0,0 l/m 7,7 km/h (2 Bft) SO 138 182 W/m 13,1 C 20,1 C 16,1 km/h (3 Bft) 100 %
20.05.2024 13:05 21,2 C 59 % 1012,9 hPa 0,0 l/m 9,5 km/h (2 Bft) S-SW 203 862 W/m 12,9 C 20,1 C 16,1 km/h (3 Bft) 100 %
20.05.2024 13:00 21,2 C 60 % 1013,0 hPa 0,0 l/m 6,4 km/h (2 Bft) O-SO 116 1046 W/m 13,1 C 21,2 C 17,7 km/h (3 Bft) 100 %
20.05.2024 12:55 20,9 C 65 % 1013,0 hPa 0,0 l/m 5,4 km/h (1 Bft) S-SO 154 941 W/m 14,1 C 20,9 C 11,3 km/h (2 Bft) 100 %
20.05.2024 12:50 21,1 C 62 % 1013,1 hPa 0,0 l/m 4,0 km/h (1 Bft) O-SO 117 928 W/m 13,5 C 21,1 C 9,7 km/h (2 Bft) 100 %
20.05.2024 12:45 20,5 C 61 % 1013,2 hPa 0,0 l/m 6,5 km/h (2 Bft) S-SW 194 898 W/m 12,7 C 20,5 C 12,9 km/h (3 Bft) 100 %
20.05.2024 12:40 20,7 C 68 % 1013,1 hPa 0,0 l/m 5,6 km/h (1 Bft) S 175 897 W/m 14,6 C 20,7 C 12,9 km/h (3 Bft) 100 %
20.05.2024 12:35 20,3 C 65 % 1013,2 hPa 0,0 l/m 7,4 km/h (2 Bft) S-SO 147 899 W/m 13,5 C 19,9 C 14,5 km/h (3 Bft) 100 %
20.05.2024 12:30 20,1 C 65 % 1013,2 hPa 0,0 l/m 7,7 km/h (2 Bft) SO 139 672 W/m 13,3 C 19,6 C 14,5 km/h (3 Bft) 100 %
20.05.2024 12:25 20,2 C 65 % 1013,2 hPa 0,0 l/m 5,9 km/h (2 Bft) O-SO 110 899 W/m 13,4 C 20,2 C 12,9 km/h (3 Bft) 100 %
20.05.2024 12:20 20,1 C 63 % 1013,3 hPa 0,0 l/m 8,5 km/h (2 Bft) S-SO 154 868 W/m 12,8 C 19,3 C 17,7 km/h (3 Bft) 100 %
20.05.2024 12:15 19,9 C 65 % 1013,3 hPa 0,0 l/m 7,9 km/h (2 Bft) SO 141 872 W/m 13,1 C 19,3 C 12,9 km/h (3 Bft) 100 %
20.05.2024 12:10 19,8 C 67 % 1013,3 hPa 0,0 l/m 6,4 km/h (2 Bft) S-SO 160 588 W/m 13,5 C 19,8 C 14,5 km/h (3 Bft) 100 %
20.05.2024 12:05 19,9 C 67 % 1013,4 hPa 0,0 l/m 5,0 km/h (1 Bft) SO 132 621 W/m 13,6 C 19,9 C 11,3 km/h (2 Bft) 100 %
20.05.2024 12:00 19,7 C 67 % 1013,6 hPa 0,0 l/m 6,1 km/h (2 Bft) SO 138 844 W/m 13,4 C 19,7 C 12,9 km/h (3 Bft) 100 %
20.05.2024 11:55 19,5 C 66 % 1013,5 hPa 0,0 l/m 8,0 km/h (2 Bft) S-SO 160 829 W/m 13,0 C 18,8 C 12,9 km/h (3 Bft) 100 %
20.05.2024 11:50 19,7 C 69 % 1013,4 hPa 0,0 l/m 3,9 km/h (1 Bft) SO 129 821 W/m 13,8 C 19,7 C 9,7 km/h (2 Bft) 100 %
20.05.2024 11:45 19,6 C 65 % 1013,5 hPa 0,0 l/m 3,7 km/h (1 Bft) SO 141 817 W/m 12,8 C 19,6 C 8,0 km/h (2 Bft) 100 %
20.05.2024 11:40 19,4 C 68 % 1013,4 hPa 0,0 l/m 5,5 km/h (1 Bft) S-SW 192 807 W/m 13,3 C 19,4 C 14,5 km/h (3 Bft) 100 %
20.05.2024 11:35 19,1 C 69 % 1013,4 hPa 0,0 l/m 5,0 km/h (1 Bft) S-SO 149 784 W/m 13,3 C 19,1 C 9,7 km/h (2 Bft) 100 %
20.05.2024 11:30 18,7 C 70 % 1013,5 hPa 0,0 l/m 4,9 km/h (1 Bft) S 172 420 W/m 13,1 C 18,7 C 11,3 km/h (2 Bft) 100 %
20.05.2024 11:25 18,7 C 71 % 1013,5 hPa 0,0 l/m 8,4 km/h (2 Bft) SO 139 757 W/m 13,3 C 17,8 C 17,7 km/h (3 Bft) 100 %
20.05.2024 11:20 18,4 C 72 % 1013,4 hPa 0,0 l/m 8,3 km/h (2 Bft) SO 124 780 W/m 13,3 C 17,5 C 14,5 km/h (3 Bft) 100 %
20.05.2024 11:15 18,3 C 70 % 1013,6 hPa 0,0 l/m 8,6 km/h (2 Bft) SO 146 769 W/m 12,7 C 17,3 C 14,5 km/h (3 Bft) 100 %
20.05.2024 11:10 18,3 C 72 % 1013,4 hPa 0,0 l/m 5,1 km/h (1 Bft) S 188 757 W/m 13,2 C 18,3 C 12,9 km/h (3 Bft) 100 %
20.05.2024 11:05 18,1 C 74 % 1013,5 hPa 0,0 l/m 7,2 km/h (2 Bft) S-SO 150 747 W/m 13,4 C 17,7 C 12,9 km/h (3 Bft) 100 %
20.05.2024 11:00 18,0 C 74 % 1013,5 hPa 0,0 l/m 5,3 km/h (1 Bft) S-SO 160 738 W/m 13,3 C 18,0 C 14,5 km/h (3 Bft) 100 %
20.05.2024 10:55 17,7 C 73 % 1013,5 hPa 0,0 l/m 6,5 km/h (2 Bft) S 172 734 W/m 12,8 C 17,7 C 12,9 km/h (3 Bft) 100 %
20.05.2024 10:50 17,6 C 74 % 1013,6 hPa 0,0 l/m 3,7 km/h (1 Bft) SO 137 722 W/m 12,9 C 17,6 C 11,3 km/h (2 Bft) 100 %
20.05.2024 10:45 17,6 C 75 % 1013,6 hPa 0,0 l/m 4,4 km/h (1 Bft) SO 140 712 W/m 13,1 C 17,6 C 12,9 km/h (3 Bft) 100 %
20.05.2024 10:40 17,5 C 78 % 1013,6 hPa 0,0 l/m 4,1 km/h (1 Bft) N 359 448 W/m 13,6 C 17,5 C 12,9 km/h (3 Bft) 100 %
20.05.2024 10:35 17,4 C 78 % 1013,8 hPa 0,0 l/m 2,3 km/h (1 Bft) S-SO 165 444 W/m 13,5 C 17,4 C 4,8 km/h (1 Bft) 100 %
20.05.2024 10:30 17,1 C 79 % 1013,7 hPa 0,0 l/m 3,4 km/h (1 Bft) O 96 591 W/m 13,4 C 17,1 C 8,0 km/h (2 Bft) 100 %
20.05.2024 10:25 16,6 C 80 % 1013,7 hPa 0,0 l/m 3,1 km/h (1 Bft) SO 130 558 W/m 13,1 C 16,6 C 4,8 km/h (1 Bft) 100 %
20.05.2024 10:20 16,1 C 82 % 1013,8 hPa 0,0 l/m 1,7 km/h (1 Bft) SO 133 527 W/m 13,0 C 16,1 C 6,4 km/h (2 Bft) 100 %
20.05.2024 10:15 15,6 C 81 % 1013,9 hPa 0,0 l/m 0,5 km/h (0 Bft) O 89 433 W/m 12,3 C 15,6 C 3,2 km/h (1 Bft) 100 %
20.05.2024 10:10 15,3 C 81 % 1013,9 hPa 0,0 l/m 2,5 km/h (1 Bft) O 89 364 W/m 12,1 C 15,3 C 4,8 km/h (1 Bft) 100 %
20.05.2024 10:05 14,8 C 82 % 1013,8 hPa 0,0 l/m 0,4 km/h (0 Bft) N 9 350 W/m 11,8 C 14,8 C 3,2 km/h (1 Bft) 100 %
20.05.2024 10:00 14,4 C 83 % 1013,9 hPa 0,0 l/m 0,0 km/h (0 Bft) NW 326 295 W/m 11,5 C 14,4 C 0,0 km/h (0 Bft) 100 %
20.05.2024 09:55 14,2 C 84 % 1013,9 hPa 0,0 l/m 0,0 km/h (0 Bft) NW 326 297 W/m 11,5 C 14,2 C 0,0 km/h (0 Bft) 100 %
20.05.2024 09:50 14,0 C 85 % 1013,9 hPa 0,0 l/m 1,1 km/h (1 Bft) NW 326 318 W/m 11,5 C 14,0 C 3,2 km/h (1 Bft) 100 %
20.05.2024 09:45 13,8 C 86 % 1014,0 hPa 0,0 l/m 1,7 km/h (1 Bft) NW 326 142 W/m 11,5 C 13,8 C 3,2 km/h (1 Bft) 100 %
20.05.2024 09:40 13,7 C 86 % 1014,0 hPa 0,0 l/m 0,7 km/h (0 Bft) NW 326 60 W/m 11,4 C 13,7 C 1,6 km/h (1 Bft) 100 %
20.05.2024 09:35 13,6 C 87 % 1014,1 hPa 0,0 l/m 1,3 km/h (1 Bft) NW 326 45 W/m 11,5 C 13,6 C 3,2 km/h (1 Bft) 100 %
20.05.2024 09:30 13,4 C 86 % 1014,1 hPa 0,0 l/m 1,7 km/h (1 Bft) NW 326 55 W/m 11,1 C 13,4 C 3,2 km/h (1 Bft) 100 %
20.05.2024 09:25 13,2 C 85 % 1014,0 hPa 0,0 l/m 2,0 km/h (1 Bft) O-NO 68 80 W/m 10,7 C 13,2 C 3,2 km/h (1 Bft) 100 %
20.05.2024 09:20 12,9 C 87 % 1014,0 hPa 0,0 l/m 2,6 km/h (1 Bft) O-NO 68 109 W/m 10,8 C 12,9 C 3,2 km/h (1 Bft) 100 %
20.05.2024 09:15 12,8 C 88 % 1014,1 hPa 0,0 l/m 1,9 km/h (1 Bft) O-NO 65 109 W/m 10,9 C 12,8 C 3,2 km/h (1 Bft) 100 %
20.05.2024 09:10 12,4 C 89 % 1014,2 hPa 0,0 l/m 0,2 km/h (0 Bft) O-NO 68 112 W/m 10,6 C 12,4 C 3,2 km/h (1 Bft) 100 %
20.05.2024 09:05 12,2 C 90 % 1014,1 hPa 0,0 l/m 1,2 km/h (1 Bft) O-NO 68 140 W/m 10,6 C 12,2 C 3,2 km/h (1 Bft) 100 %
20.05.2024 09:00 11,9 C 91 % 1014,2 hPa 0,0 l/m 1,7 km/h (1 Bft) O-NO 68 123 W/m 10,5 C 11,9 C 3,2 km/h (1 Bft) 100 %
20.05.2024 08:55 11,7 C 92 % 1014,3 hPa 0,0 l/m 1,3 km/h (1 Bft) O-NO 70 95 W/m 10,4 C 11,7 C 3,2 km/h (1 Bft) 100 %
20.05.2024 08:50 11,4 C 92 % 1014,2 hPa 0,0 l/m 1,7 km/h (1 Bft) O 95 77 W/m 10,1 C 11,4 C 3,2 km/h (1 Bft) 100 %
20.05.2024 08:45 11,2 C 92 % 1014,2 hPa 0,0 l/m 3,0 km/h (1 Bft) O 94 57 W/m 9,9 C 11,2 C 4,8 km/h (1 Bft) 100 %
20.05.2024 08:40 11,1 C 92 % 1014,3 hPa 0,0 l/m 2,5 km/h (1 Bft) O 95 41 W/m 9,8 C 11,1 C 3,2 km/h (1 Bft) 100 %
20.05.2024 08:35 10,8 C 92 % 1014,2 hPa 0,0 l/m 3,0 km/h (1 Bft) O 95 34 W/m 9,6 C 10,8 C 4,8 km/h (1 Bft) 100 %
20.05.2024 08:30 10,7 C 93 % 1014,4 hPa 0,0 l/m 2,7 km/h (1 Bft) O 95 29 W/m 9,6 C 10,7 C 3,2 km/h (1 Bft) 100 %
20.05.2024 08:25 10,5 C 93 % 1014,4 hPa 0,0 l/m 3,0 km/h (1 Bft) O 95 25 W/m 9,4 C 10,5 C 3,2 km/h (1 Bft) 100 %
20.05.2024 08:20 10,3 C 93 % 1014,5 hPa 0,0 l/m 3,0 km/h (1 Bft) O 95 22 W/m 9,2 C 10,3 C 4,8 km/h (1 Bft) 100 %
20.05.2024 08:15 10,2 C 93 % 1014,5 hPa 0,0 l/m 3,3 km/h (1 Bft) O 95 20 W/m 9,1 C 10,2 C 4,8 km/h (1 Bft) 100 %
20.05.2024 08:10 10,1 C 94 % 1014,5 hPa 0,0 l/m 3,0 km/h (1 Bft) O 95 18 W/m 9,2 C 10,1 C 4,8 km/h (1 Bft) 100 %
20.05.2024 08:05 9,9 C 94 % 1014,4 hPa 0,0 l/m 1,0 km/h (0 Bft) O 95 16 W/m 9,0 C 9,9 C 3,2 km/h (1 Bft) 100 %
20.05.2024 08:00 9,8 C 94 % 1014,5 hPa 0,0 l/m 0,0 km/h (0 Bft) O 95 18 W/m 8,9 C 9,8 C 0,0 km/h (0 Bft) 100 %
20.05.2024 07:55 9,7 C 94 % 1014,5 hPa 0,0 l/m 0,0 km/h (0 Bft) O 95 18 W/m 8,8 C 9,7 C 0,0 km/h (0 Bft) 100 %
20.05.2024 07:50 9,7 C 94 % 1014,5 hPa 0,0 l/m 0,0 km/h (0 Bft) O 95 17 W/m 8,8 C 9,7 C 0,0 km/h (0 Bft) 100 %
20.05.2024 07:45 9,6 C 94 % 1014,5 hPa 0,0 l/m 0,0 km/h (0 Bft) O 95 16 W/m 8,7 C 9,6 C 0,0 km/h (0 Bft) 100 %
20.05.2024 07:40 9,6 C 94 % 1014,6 hPa 0,0 l/m 0,0 km/h (0 Bft) O 95 14 W/m 8,7 C 9,6 C 0,0 km/h (0 Bft) 100 %
20.05.2024 07:35 9,4 C 94 % 1014,5 hPa 0,0 l/m 0,0 km/h (0 Bft) O 95 14 W/m 8,5 C 9,4 C 0,0 km/h (0 Bft) 100 %
20.05.2024 07:30 9,2 C 94 % 1014,5 hPa 0,0 l/m 0,0 km/h (0 Bft) O 95 13 W/m 8,3 C 9,2 C 0,0 km/h (0 Bft) 100 %
20.05.2024 07:25 9,1 C 93 % 1014,5 hPa 0,0 l/m 0,0 km/h (0 Bft) O 95 12 W/m 8,0 C 9,1 C 0,0 km/h (0 Bft) 100 %
20.05.2024 07:20 9,1 C 93 % 1014,5 hPa 0,0 l/m 0,0 km/h (0 Bft) O 95 12 W/m 8,0 C 9,1 C 0,0 km/h (0 Bft) 100 %
20.05.2024 07:15 9,1 C 93 % 1014,5 hPa 0,0 l/m 0,0 km/h (0 Bft) O 95 12 W/m 8,0 C 9,1 C 0,0 km/h (0 Bft) 100 %
20.05.2024 07:10 9,0 C 93 % 1014,5 hPa 0,0 l/m 0,0 km/h (0 Bft) O 95 11 W/m 7,9 C 9,0 C 0,0 km/h (0 Bft) 100 %
20.05.2024 07:05 8,8 C 93 % 1014,6 hPa 0,0 l/m 0,0 km/h (0 Bft) O 95 10 W/m 7,7 C 8,8 C 1,6 km/h (1 Bft) 100 %
20.05.2024 07:00 8,9 C 93 % 1014,5 hPa 0,0 l/m 0,0 km/h (0 Bft) O 95 9 W/m 7,8 C 8,9 C 1,6 km/h (1 Bft) 100 %
20.05.2024 06:55 8,9 C 93 % 1014,5 hPa 0,0 l/m 0,0 km/h (0 Bft) SO 125 10 W/m 7,8 C 8,9 C 0,0 km/h (0 Bft) 100 %
20.05.2024 06:50 8,9 C 93 % 1014,4 hPa 0,0 l/m 0,0 km/h (0 Bft) SO 125 11 W/m 7,8 C 8,9 C 0,0 km/h (0 Bft) 100 %
20.05.2024 06:45 9,0 C 93 % 1014,4 hPa 0,0 l/m 0,0 km/h (0 Bft) SO 125 12 W/m 7,9 C 9,0 C 0,0 km/h (0 Bft) 100 %
20.05.2024 06:40 9,0 C 93 % 1014,5 hPa 0,0 l/m 0,0 km/h (0 Bft) SO 125 12 W/m 7,9 C 9,0 C 0,0 km/h (0 Bft) 100 %
20.05.2024 06:35 8,9 C 93 % 1014,4 hPa 0,0 l/m 0,0 km/h (0 Bft) SO 125 12 W/m 7,8 C 8,9 C 0,0 km/h (0 Bft) 100 %
20.05.2024 06:30 8,7 C 93 % 1014,6 hPa 0,0 l/m 0,0 km/h (0 Bft) SO 125 11 W/m 7,6 C 8,7 C 0,0 km/h (0 Bft) 100 %
20.05.2024 06:25 8,7 C 93 % 1014,5 hPa 0,0 l/m 0,0 km/h (0 Bft) SO 125 9 W/m 7,6 C 8,7 C 0,0 km/h (0 Bft) 100 %
20.05.2024 06:20 8,6 C 92 % 1014,5 hPa 0,0 l/m 0,0 km/h (0 Bft) O-SO 120 7 W/m 7,4 C 8,6 C 0,0 km/h (0 Bft) 100 %
20.05.2024 06:15 8,7 C 92 % 1014,6 hPa 0,0 l/m 0,0 km/h (0 Bft) SO 125 6 W/m 7,5 C 8,7 C 0,0 km/h (0 Bft) 100 %
20.05.2024 06:10 8,6 C 92 % 1014,5 hPa 0,0 l/m 0,0 km/h (0 Bft) SO 125 5 W/m 7,4 C 8,6 C 0,0 km/h (0 Bft) 100 %
20.05.2024 06:05 8,7 C 92 % 1014,6 hPa 0,0 l/m 0,0 km/h (0 Bft) SO 125 4 W/m 7,5 C 8,7 C 0,0 km/h (0 Bft) 100 %
20.05.2024 06:00 8,7 C 92 % 1014,5 hPa 0,0 l/m 0,0 km/h (0 Bft) SO 125 0 W/m 7,5 C 8,7 C 0,0 km/h (0 Bft) 100 %
20.05.2024 05:55 8,8 C 92 % 1014,6 hPa 0,0 l/m 0,0 km/h (0 Bft) SO 125 0 W/m 7,6 C 8,8 C 0,0 km/h (0 Bft) 100 %
20.05.2024 05:50 9,0 C 92 % 1014,7 hPa 0,0 l/m 0,0 km/h (0 Bft) SO 125 0 W/m 7,8 C 9,0 C 0,0 km/h (0 Bft) 100 %
20.05.2024 05:45 9,1 C 92 % 1014,6 hPa 0,0 l/m 0,0 km/h (0 Bft) SO 125 0 W/m 7,9 C 9,1 C 0,0 km/h (0 Bft) 100 %
20.05.2024 05:40 9,2 C 92 % 1014,5 hPa 0,0 l/m 0,0 km/h (0 Bft) SO 125 0 W/m 8,0 C 9,2 C 0,0 km/h (0 Bft) 100 %
20.05.2024 05:35 9,2 C 92 % 1014,5 hPa 0,0 l/m 0,1 km/h (0 Bft) SO 125 0 W/m 8,0 C 9,2 C 1,6 km/h (1 Bft) 100 %
20.05.2024 05:30 9,2 C 93 % 1014,5 hPa 0,0 l/m 1,9 km/h (1 Bft) SO 125 0 W/m 8,1 C 9,2 C 3,2 km/h (1 Bft) 100 %
20.05.2024 05:25 9,1 C 92 % 1014,6 hPa 0,0 l/m 1,0 km/h (0 Bft) SO 125 0 W/m 7,9 C 9,1 C 3,2 km/h (1 Bft) 100 %
20.05.2024 05:20 9,0 C 92 % 1014,5 hPa 0,0 l/m 0,0 km/h (0 Bft) SO 125 0 W/m 7,8 C 9,0 C 0,0 km/h (0 Bft) 100 %
20.05.2024 05:15 9,0 C 92 % 1014,6 hPa 0,0 l/m 0,0 km/h (0 Bft) SO 125 0 W/m 7,8 C 9,0 C 1,6 km/h (1 Bft) 100 %
20.05.2024 05:10 9,0 C 92 % 1014,6 hPa 0,0 l/m 0,1 km/h (0 Bft) SO 125 0 W/m 7,8 C 9,0 C 1,6 km/h (1 Bft) 100 %
20.05.2024 05:05 9,1 C 92 % 1014,6 hPa 0,0 l/m 0,0 km/h (0 Bft) SO 125 0 W/m 7,9 C 9,1 C 0,0 km/h (0 Bft) 100 %
20.05.2024 05:00 9,0 C 92 % 1014,6 hPa 0,0 l/m 0,0 km/h (0 Bft) SO 125 0 W/m 7,8 C 9,0 C 0,0 km/h (0 Bft) 100 %
20.05.2024 04:55 8,9 C 91 % 1014,7 hPa 0,0 l/m 0,0 km/h (0 Bft) SO 125 0 W/m 7,5 C 8,9 C 0,0 km/h (0 Bft) 100 %
20.05.2024 04:50 8,9 C 91 % 1014,7 hPa 0,0 l/m 0,0 km/h (0 Bft) SO 125 0 W/m 7,5 C 8,9 C 0,0 km/h (0 Bft) 100 %
20.05.2024 04:45 8,9 C 91 % 1014,7 hPa 0,0 l/m 0,0 km/h (0 Bft) SO 125 0 W/m 7,5 C 8,9 C 0,0 km/h (0 Bft) 100 %
20.05.2024 04:40 9,1 C 90 % 1014,6 hPa 0,0 l/m 0,0 km/h (0 Bft) SO 125 0 W/m 7,5 C 9,1 C 0,0 km/h (0 Bft) 100 %
20.05.2024 04:35 9,2 C 90 % 1014,7 hPa 0,0 l/m 0,0 km/h (0 Bft) SO 125 0 W/m 7,6 C 9,2 C 0,0 km/h (0 Bft) 100 %
20.05.2024 04:30 9,3 C 90 % 1014,7 hPa 0,0 l/m 0,0 km/h (0 Bft) SO 125 0 W/m 7,7 C 9,3 C 0,0 km/h (0 Bft) 100 %
20.05.2024 04:25 9,5 C 90 % 1014,6 hPa 0,0 l/m 0,0 km/h (0 Bft) SO 125 0 W/m 7,9 C 9,5 C 0,0 km/h (0 Bft) 100 %
20.05.2024 04:20 9,7 C 91 % 1014,6 hPa 0,0 l/m 0,0 km/h (0 Bft) SO 125 0 W/m 8,3 C 9,7 C 0,0 km/h (0 Bft) 100 %
20.05.2024 04:15 9,7 C 91 % 1014,6 hPa 0,0 l/m 0,0 km/h (0 Bft) SO 125 0 W/m 8,3 C 9,7 C 0,0 km/h (0 Bft) 100 %
20.05.2024 04:10 9,7 C 91 % 1014,5 hPa 0,0 l/m 0,0 km/h (0 Bft) SO 125 0 W/m 8,3 C 9,7 C 1,6 km/h (1 Bft) 100 %
20.05.2024 04:05 9,7 C 91 % 1014,4 hPa 0,0 l/m 0,1 km/h (0 Bft) SO 125 0 W/m 8,3 C 9,7 C 1,6 km/h (1 Bft) 100 %
20.05.2024 04:00 9,7 C 91 % 1014,4 hPa 0,0 l/m 0,0 km/h (0 Bft) SO 125 0 W/m 8,3 C 9,7 C 0,0 km/h (0 Bft) 100 %
20.05.2024 03:55 9,7 C 90 % 1014,4 hPa 0,0 l/m 0,0 km/h (0 Bft) SO 125 0 W/m 8,1 C 9,7 C 0,0 km/h (0 Bft) 100 %
20.05.2024 03:50 9,8 C 90 % 1014,4 hPa 0,0 l/m 0,0 km/h (0 Bft) SO 125 0 W/m 8,2 C 9,8 C 0,0 km/h (0 Bft) 100 %
20.05.2024 03:45 9,8 C 91 % 1014,5 hPa 0,0 l/m 0,5 km/h (0 Bft) O-SO 122 0 W/m 8,4 C 9,8 C 3,2 km/h (1 Bft) 100 %
20.05.2024 03:40 9,9 C 91 % 1014,6 hPa 0,0 l/m 1,9 km/h (1 Bft) SO 125 0 W/m 8,5 C 9,9 C 4,8 km/h (1 Bft) 100 %
20.05.2024 03:35 9,8 C 90 % 1014,6 hPa 0,0 l/m 0,8 km/h (0 Bft) SO 125 0 W/m 8,2 C 9,8 C 3,2 km/h (1 Bft) 100 %
20.05.2024 03:30 9,7 C 90 % 1014,7 hPa 0,0 l/m 0,0 km/h (0 Bft) SO 125 0 W/m 8,1 C 9,7 C 0,0 km/h (0 Bft) 100 %
20.05.2024 03:25 9,8 C 90 % 1014,7 hPa 0,0 l/m 0,0 km/h (0 Bft) SO 125 0 W/m 8,2 C 9,8 C 0,0 km/h (0 Bft) 100 %
20.05.2024 03:20 9,9 C 90 % 1014,8 hPa 0,0 l/m 0,0 km/h (0 Bft) SO 125 0 W/m 8,3 C 9,9 C 0,0 km/h (0 Bft) 100 %
20.05.2024 03:15 10,0 C 90 % 1014,8 hPa 0,0 l/m 0,0 km/h (0 Bft) SO 125 0 W/m 8,4 C 10,0 C 0,0 km/h (0 Bft) 100 %
20.05.2024 03:10 10,1 C 90 % 1014,9 hPa 0,0 l/m 0,0 km/h (0 Bft) SO 125 0 W/m 8,5 C 10,1 C 0,0 km/h (0 Bft) 100 %
20.05.2024 03:05 10,2 C 91 % 1014,9 hPa 0,0 l/m 0,0 km/h (0 Bft) SO 125 0 W/m 8,8 C 10,2 C 1,6 km/h (1 Bft) 100 %
20.05.2024 03:00 10,2 C 91 % 1014,8 hPa 0,0 l/m 1,3 km/h (1 Bft) SO 125 0 W/m 8,8 C 10,2 C 4,8 km/h (1 Bft) 100 %
20.05.2024 02:55 10,1 C 91 % 1014,9 hPa 0,0 l/m 0,3 km/h (0 Bft) SO 125 0 W/m 8,7 C 10,1 C 1,6 km/h (1 Bft) 100 %
20.05.2024 02:50 10,1 C 91 % 1014,9 hPa 0,0 l/m 0,5 km/h (0 Bft) SO 125 0 W/m 8,7 C 10,1 C 3,2 km/h (1 Bft) 100 %
20.05.2024 02:45 10,1 C 91 % 1014,9 hPa 0,0 l/m 0,0 km/h (0 Bft) SO 125 0 W/m 8,7 C 10,1 C 0,0 km/h (0 Bft) 100 %
20.05.2024 02:40 10,1 C 91 % 1014,9 hPa 0,0 l/m 0,0 km/h (0 Bft) SO 125 0 W/m 8,7 C 10,1 C 0,0 km/h (0 Bft) 100 %
20.05.2024 02:35 9,9 C 91 % 1015,0 hPa 0,0 l/m 0,0 km/h (0 Bft) SO 125 0 W/m 8,5 C 9,9 C 0,0 km/h (0 Bft) 100 %
20.05.2024 02:30 9,9 C 91 % 1014,9 hPa 0,0 l/m 0,0 km/h (0 Bft) SO 125 0 W/m 8,5 C 9,9 C 0,0 km/h (0 Bft) 100 %
20.05.2024 02:25 9,9 C 91 % 1015,0 hPa 0,0 l/m 0,0 km/h (0 Bft) SO 125 0 W/m 8,5 C 9,9 C 0,0 km/h (0 Bft) 100 %
20.05.2024 02:20 9,9 C 90 % 1015,1 hPa 0,0 l/m 0,0 km/h (0 Bft) SO 125 0 W/m 8,3 C 9,9 C 0,0 km/h (0 Bft) 100 %
20.05.2024 02:15 9,9 C 90 % 1015,0 hPa 0,0 l/m 0,0 km/h (0 Bft) SO 125 0 W/m 8,3 C 9,9 C 0,0 km/h (0 Bft) 100 %
20.05.2024 02:10 10,1 C 90 % 1014,9 hPa 0,0 l/m 0,0 km/h (0 Bft) SO 125 0 W/m 8,5 C 10,1 C 0,0 km/h (0 Bft) 100 %
20.05.2024 02:05 10,2 C 89 % 1015,0 hPa 0,0 l/m 0,0 km/h (0 Bft) SO 125 0 W/m 8,5 C 10,2 C 0,0 km/h (0 Bft) 100 %
20.05.2024 02:00 10,3 C 89 % 1015,0 hPa 0,0 l/m 0,0 km/h (0 Bft) SO 125 0 W/m 8,6 C 10,3 C 0,0 km/h (0 Bft) 100 %
20.05.2024 01:55 10,4 C 89 % 1015,1 hPa 0,0 l/m 0,0 km/h (0 Bft) SO 125 0 W/m 8,7 C 10,4 C 0,0 km/h (0 Bft) 100 %
20.05.2024 01:50 10,4 C 89 % 1015,2 hPa 0,0 l/m 0,0 km/h (0 Bft) SO 125 0 W/m 8,7 C 10,4 C 0,0 km/h (0 Bft) 100 %
20.05.2024 01:45 10,6 C 89 % 1015,2 hPa 0,0 l/m 0,0 km/h (0 Bft) SO 125 0 W/m 8,9 C 10,6 C 0,0 km/h (0 Bft) 100 %
20.05.2024 01:40 10,6 C 89 % 1015,1 hPa 0,0 l/m 0,0 km/h (0 Bft) SO 125 0 W/m 8,9 C 10,6 C 0,0 km/h (0 Bft) 100 %
20.05.2024 01:35 10,8 C 89 % 1015,2 hPa 0,0 l/m 0,0 km/h (0 Bft) SO 125 0 W/m 9,1 C 10,8 C 0,0 km/h (0 Bft) 100 %
20.05.2024 01:30 10,8 C 89 % 1015,1 hPa 0,0 l/m 0,0 km/h (0 Bft) SO 125 0 W/m 9,1 C 10,8 C 0,0 km/h (0 Bft) 100 %
20.05.2024 01:25 10,9 C 89 % 1015,2 hPa 0,0 l/m 0,0 km/h (0 Bft) SO 125 0 W/m 9,2 C 10,9 C 0,0 km/h (0 Bft) 100 %
20.05.2024 01:20 10,9 C 89 % 1015,1 hPa 0,0 l/m 0,0 km/h (0 Bft) SO 125 0 W/m 9,2 C 10,9 C 0,0 km/h (0 Bft) 100 %
20.05.2024 01:15 10,9 C 89 % 1015,1 hPa 0,0 l/m 0,0 km/h (0 Bft) SO 125 0 W/m 9,2 C 10,9 C 0,0 km/h (0 Bft) 100 %
20.05.2024 01:10 10,9 C 89 % 1015,0 hPa 0,0 l/m 0,0 km/h (0 Bft) SO 125 0 W/m 9,2 C 10,9 C 0,0 km/h (0 Bft) 100 %
20.05.2024 01:05 10,9 C 88 % 1015,1 hPa 0,0 l/m 0,0 km/h (0 Bft) SO 125 0 W/m 9,0 C 10,9 C 0,0 km/h (0 Bft) 100 %
20.05.2024 01:00 10,9 C 88 % 1015,2 hPa 0,0 l/m 0,0 km/h (0 Bft) SO 125 0 W/m 9,0 C 10,9 C 0,0 km/h (0 Bft) 100 %
20.05.2024 00:55 10,9 C 88 % 1015,3 hPa 0,0 l/m 0,0 km/h (0 Bft) SO 125 0 W/m 9,0 C 10,9 C 0,0 km/h (0 Bft) 100 %
20.05.2024 00:50 11,1 C 88 % 1015,2 hPa 0,0 l/m 0,0 km/h (0 Bft) SO 125 0 W/m 9,2 C 11,1 C 0,0 km/h (0 Bft) 100 %
20.05.2024 00:45 11,2 C 88 % 1015,1 hPa 0,0 l/m 0,0 km/h (0 Bft) SO 125 0 W/m 9,3 C 11,2 C 0,0 km/h (0 Bft) 100 %
20.05.2024 00:40 11,2 C 88 % 1015,1 hPa 0,0 l/m 0,0 km/h (0 Bft) SO 125 0 W/m 9,3 C 11,2 C 0,0 km/h (0 Bft) 100 %
20.05.2024 00:35 11,3 C 88 % 1015,2 hPa 0,0 l/m 0,0 km/h (0 Bft) SO 125 0 W/m 9,4 C 11,3 C 0,0 km/h (0 Bft) 100 %
20.05.2024 00:30 11,4 C 88 % 1015,2 hPa 0,0 l/m 0,5 km/h (0 Bft) SO 125 0 W/m 9,5 C 11,4 C 3,2 km/h (1 Bft) 100 %
20.05.2024 00:25 11,3 C 88 % 1015,2 hPa 0,0 l/m 0,4 km/h (0 Bft) SO 125 0 W/m 9,4 C 11,3 C 3,2 km/h (1 Bft) 100 %
20.05.2024 00:20 11,3 C 88 % 1015,3 hPa 0,0 l/m 2,7 km/h (1 Bft) SO 125 0 W/m 9,4 C 11,3 C 4,8 km/h (1 Bft) 100 %
20.05.2024 00:15 11,3 C 88 % 1015,3 hPa 0,0 l/m 0,8 km/h (0 Bft) S-SO 156 0 W/m 9,4 C 11,3 C 3,2 km/h (1 Bft) 100 %
20.05.2024 00:10 11,3 C 88 % 1015,3 hPa 0,0 l/m 1,0 km/h (0 Bft) S-SO 156 0 W/m 9,4 C 11,3 C 4,8 km/h (1 Bft) 100 %
20.05.2024 00:05 11,2 C 88 % 1015,2 hPa 0,0 l/m 2,0 km/h (1 Bft) S-SO 156 0 W/m 9,3 C 11,2 C 3,2 km/h (1 Bft) 100 %
20.05.2024 00:00 11,3 C 88 % 1015,3 hPa 0,0 l/m 0,0 km/h (0 Bft) S-SO 156 0 W/m 9,4 C 11,3 C 1,6 km/h (1 Bft) 100 %
_ Min-Zeit 06:10 13:05 18:25 - 00:00 - - - 06:10 06:10 00:35 00:00
Minimum _ 8,6 C 59 % 1010,5 hPa - 0,0 km/h (0 Bft) - - - 7,4 C 8,6 C 0,0 km/h (0 Bft) 100 %
_ Max-Zeit 13:05 07:30 00:00 15:00 13:05 - - 13:00 18:10 13:00 13:40 00:00
Maximum _ 21,3 C 94 % 1015,3 hPa 0,2 l/m 9,5 km/h
S-SW (2 Bft)
- - 1046 W/m 17,6 C 21,2 C 19,3 km/h
SO (3 Bft)
100 %
Durchschnitt _ 14,4 C 85 % 1013,4 hPa #2,8 l/m 1,8 km/h (1 Bft) SO - 286 W/m 11,8 C 14,3 C 3,9 km/h (1 Bft) 100 %
Elztal-Wetter